Darwin, Australia

5:29 PM ACST on March 26, 2017 (GMT +0930)
Anula Heights | | Change Station

Elev 125 ft 12.39 °S, 130.89 °E | Updated 3 seconds ago

Mostly Cloudy
Mostly Cloudy
86.8 °F
Feels Like 100 °F
N
4.0
Wind Variable Wind from NW
Gusts 5.0 mph

Today
High -- | Low -- °F
--% Chance of Precip.
Yesterday
High -- | Low -- °F
Precip. -- in
Pressure 29.71 in
Visibility 6.2 miles
Clouds Few 2400 ft
Mostly Cloudy 40000 ft
Heat Index 100 °F
Dew Point 78 °F
Humidity 76%
Rainfall 0.02 in
Snow Depth Not available.
6:50 AM 6:53 PM
Waning Crescent, 4% visible
METAR YPDN 260730Z 31007KT 9999 FEW024 BKN400 31/25 Q1006 NOSIG
Pressure 29.71 in
Visibility 6.2 miles
Clouds Few 2400 ft
Mostly Cloudy 40000 ft
Heat Index 100 °F
Dew Point 78 °F
Humidity 76%
Rainfall 0.02 in
Snow Depth Not available.
6:50 AM 6:53 PM
Waning Crescent, 4% visible
METAR YPDN 260730Z 31007KT 9999 FEW024 BKN400 31/25 Q1006 NOSIG

Get Severe Weather Alerts

Thanks for signing up!

Be on the lookout for a verification email in your inbox.

You'll start receiving the daily forecast at 8 AM.

×

10-Day Weather Forecast

×

Almanac

Astronomy

Mar. 26, 2017 Rise Set
Actual Time
Civil Twilight
Nautical Twilight
Astronomical Twilight
Moon
Length of Visible Light
Length of Day
Tomorrow will be .
, % of the Moon is Illuminated

Today's Extremes

Country Highs Country Lows

Community

WunderPhotos

Upload Photos

1,962,540 photos uploaded!

WunderBlog® & News

Nearby

Air Quality

  Air Quality AQ Index Pollutant
Not available.

Snow Depth

Station Depth Elevation

Earthquake Activity

City Distance Mag. Time & Date
Minimum magnitude displayed is 2.5.

Earthquake Activity

City Distance Mag. Time & Date
Minimum magnitude displayed is 2.5.

Coastal Water Temperatures

Place Temperature

Stations

Nearby Weather Stations

Station Location Temp. Windchill Dew Point Humidity Wind Precip. Elev Updated Type